createdAt,value
2023-01-09T00:01:39.479Z,7.00
2023-01-09T00:04:09.359Z,7.00
2023-01-09T00:06:36.668Z,7.00
2023-01-09T00:09:03.707Z,6.90
2023-01-09T00:11:30.649Z,6.90
2023-01-09T00:13:58.494Z,6.90
2023-01-09T00:16:25.552Z,7.00
2023-01-09T00:18:53.250Z,6.90
2023-01-09T00:21:20.332Z,6.90
2023-01-09T00:23:47.079Z,6.90
2023-01-09T00:26:19.821Z,6.80
2023-01-09T00:28:51.980Z,6.80
2023-01-09T00:31:20.860Z,6.80
2023-01-09T00:33:54.909Z,6.80
2023-01-09T00:36:25.482Z,6.80
2023-01-09T00:38:52.395Z,6.70
2023-01-09T00:41:36.960Z,6.70
2023-01-09T00:44:17.265Z,6.60
2023-01-09T00:46:50.903Z,6.60
2023-01-09T00:49:18.304Z,6.60
2023-01-09T00:51:45.139Z,6.70
2023-01-09T00:54:14.986Z,6.60
2023-01-09T00:56:42.065Z,6.60
2023-01-09T00:59:09.193Z,6.60
2023-01-09T01:01:38.220Z,6.60
2023-01-09T01:04:27.220Z,6.60
2023-01-09T01:07:12.527Z,6.60
2023-01-09T01:09:39.444Z,6.60
2023-01-09T01:12:10.620Z,6.60
2023-01-09T01:14:39.954Z,6.60
2023-01-09T01:17:07.876Z,6.60
2023-01-09T01:19:36.001Z,6.60
2023-01-09T01:22:03.290Z,6.60
2023-01-09T01:24:30.408Z,6.50
2023-01-09T01:26:57.161Z,6.60
2023-01-09T01:29:23.820Z,6.60
2023-01-09T01:31:51.853Z,6.50
2023-01-09T01:34:18.583Z,6.50
2023-01-09T01:36:45.353Z,6.50
2023-01-09T01:39:12.263Z,6.50
2023-01-09T01:41:39.067Z,6.40
2023-01-09T01:44:27.171Z,6.40
2023-01-09T01:46:58.976Z,6.50
2023-01-09T01:49:25.859Z,6.50
2023-01-09T01:51:54.114Z,6.40
2023-01-09T01:54:26.414Z,6.40
2023-01-09T01:56:58.383Z,6.40
2023-01-09T01:59:36.887Z,6.30
2023-01-09T02:02:05.237Z,6.40
2023-01-09T02:04:34.676Z,6.40
2023-01-09T02:07:05.010Z,6.40
2023-01-09T02:09:34.054Z,6.40
2023-01-09T02:12:01.242Z,6.40
2023-01-09T02:14:32.235Z,6.40
2023-01-09T02:17:24.723Z,6.50
2023-01-09T02:20:15.760Z,6.50
2023-01-09T02:23:16.725Z,6.50
2023-01-09T02:26:18.799Z,6.50
2023-01-09T02:29:17.698Z,6.50
2023-01-09T02:32:00.316Z,6.50
2023-01-09T02:34:31.154Z,6.50
2023-01-09T02:37:09.846Z,6.50
2023-01-09T02:40:01.896Z,6.50
2023-01-09T02:42:31.513Z,6.50
2023-01-09T02:44:58.361Z,6.70
2023-01-09T02:47:25.069Z,6.80
2023-01-09T02:50:05.332Z,6.90
2023-01-09T02:52:41.350Z,6.90
2023-01-09T02:55:14.696Z,6.90
2023-01-09T02:57:49.563Z,7.00
2023-01-09T03:00:38.455Z,6.90
2023-01-09T03:03:18.566Z,7.00
2023-01-09T03:06:00.410Z,7.10
2023-01-09T03:08:53.123Z,7.10
2023-01-09T03:11:21.916Z,7.20
2023-01-09T03:13:54.715Z,7.20
2023-01-09T03:16:27.262Z,7.10
2023-01-09T03:18:56.231Z,7.30
2023-01-09T03:21:23.986Z,7.30
2023-01-09T03:23:53.921Z,7.40
2023-01-09T03:26:20.734Z,7.50
2023-01-09T03:28:48.415Z,7.50
2023-01-09T03:31:15.668Z,7.50
2023-01-09T03:33:43.330Z,7.50
2023-01-09T03:36:11.872Z,7.50
2023-01-09T03:38:39.113Z,7.50
2023-01-09T03:41:06.812Z,7.50
2023-01-09T03:43:33.811Z,7.60
2023-01-09T03:46:00.761Z,7.60
2023-01-09T03:48:28.171Z,7.60
2023-01-09T03:50:57.412Z,7.60
2023-01-09T03:53:27.787Z,7.70
2023-01-09T03:55:56.814Z,7.60
2023-01-09T03:58:25.790Z,7.60
2023-01-09T04:01:01.740Z,7.60
2023-01-09T04:03:29.001Z,7.70
2023-01-09T04:05:55.779Z,7.70
2023-01-09T04:08:22.627Z,7.70
2023-01-09T04:10:50.968Z,7.80
2023-01-09T04:13:19.595Z,7.70
2023-01-09T04:15:46.425Z,7.70
2023-01-09T04:18:13.232Z,7.70
2023-01-09T04:20:41.005Z,7.70
2023-01-09T04:23:08.052Z,7.80
2023-01-09T04:25:35.058Z,7.80
2023-01-09T04:28:03.267Z,7.80
2023-01-09T04:30:30.361Z,7.70
2023-01-09T04:32:57.278Z,7.80
2023-01-09T04:35:24.108Z,7.80
2023-01-09T04:37:50.962Z,7.80
2023-01-09T04:40:18.625Z,7.70
2023-01-09T04:42:45.791Z,7.70
2023-01-09T04:45:15.355Z,7.60
2023-01-09T04:47:42.954Z,7.50
2023-01-09T04:50:11.428Z,7.50
2023-01-09T04:52:39.168Z,7.60
2023-01-09T04:55:07.554Z,7.60
2023-01-09T04:57:34.867Z,7.70
2023-01-09T05:00:02.240Z,7.70
2023-01-09T05:02:29.022Z,7.80
2023-01-09T05:04:56.765Z,7.90
2023-01-09T05:07:23.563Z,7.90
2023-01-09T05:09:50.357Z,7.90
2023-01-09T05:12:17.211Z,8.00
2023-01-09T05:14:45.040Z,8.00
2023-01-09T05:17:12.747Z,8.10
2023-01-09T05:19:39.712Z,8.00
2023-01-09T05:22:06.635Z,8.10
2023-01-09T05:24:33.376Z,8.10
2023-01-09T05:27:02.540Z,8.10
2023-01-09T05:29:29.387Z,8.20
2023-01-09T05:31:56.410Z,8.20
2023-01-09T05:34:26.707Z,8.20
2023-01-09T05:36:53.458Z,8.20
2023-01-09T05:39:20.359Z,8.20
2023-01-09T05:41:47.335Z,8.20
2023-01-09T05:44:14.197Z,8.20
2023-01-09T05:46:41.184Z,8.20
2023-01-09T05:49:07.944Z,8.10
2023-01-09T05:51:35.053Z,8.00
2023-01-09T05:54:02.839Z,8.10
2023-01-09T05:56:30.047Z,8.10
2023-01-09T05:58:57.572Z,8.00
2023-01-09T06:01:24.390Z,7.90
2023-01-09T06:03:52.336Z,8.00
2023-01-09T06:06:19.330Z,8.00
2023-01-09T06:08:46.158Z,8.00
2023-01-09T06:11:12.911Z,8.00
2023-01-09T06:13:40.844Z,8.00
2023-01-09T06:16:07.974Z,8.20
2023-01-09T06:18:34.819Z,8.00
2023-01-09T06:21:01.751Z,8.00
2023-01-09T06:23:29.754Z,8.00
2023-01-09T06:25:56.763Z,7.90
2023-01-09T06:28:23.510Z,7.90
2023-01-09T06:30:52.266Z,7.90
2023-01-09T06:33:21.430Z,7.80
2023-01-09T06:35:48.248Z,7.90
2023-01-09T06:38:15.342Z,7.90
2023-01-09T06:40:44.147Z,7.90
2023-01-09T06:43:11.125Z,7.90
2023-01-09T06:45:37.806Z,7.90
2023-01-09T06:48:04.659Z,7.80
2023-01-09T06:50:31.545Z,7.70
2023-01-09T06:52:58.358Z,7.70
2023-01-09T06:55:26.331Z,7.70
2023-01-09T06:57:53.516Z,7.80
2023-01-09T07:00:20.557Z,7.80
2023-01-09T07:02:48.489Z,8.00
2023-01-09T07:05:15.385Z,8.00
2023-01-09T07:07:42.219Z,8.00
2023-01-09T07:10:10.281Z,8.00
2023-01-09T07:12:37.067Z,8.00
2023-01-09T07:15:06.746Z,8.00
2023-01-09T07:17:33.881Z,8.10
2023-01-09T07:20:01.107Z,8.00
2023-01-09T07:22:27.970Z,8.00
2023-01-09T07:24:54.838Z,8.20
2023-01-09T07:27:22.393Z,8.00
2023-01-09T07:29:50.101Z,8.10
2023-01-09T07:32:17.403Z,8.10
2023-01-09T07:34:44.588Z,8.10
2023-01-09T07:37:12.113Z,8.10
2023-01-09T07:39:40.218Z,8.10
2023-01-09T07:42:08.785Z,8.00
2023-01-09T07:44:38.156Z,8.20
2023-01-09T07:47:05.028Z,8.20
2023-01-09T07:49:33.101Z,8.40
2023-01-09T07:52:00.180Z,8.30
2023-01-09T07:54:26.987Z,8.30
2023-01-09T07:56:53.846Z,8.40
2023-01-09T07:59:20.830Z,8.30
2023-01-09T08:01:47.742Z,8.30
2023-01-09T08:04:14.778Z,8.30
2023-01-09T08:06:41.968Z,8.30
2023-01-09T08:09:11.499Z,8.40
2023-01-09T08:11:38.355Z,8.40
2023-01-09T08:14:05.159Z,8.40
2023-01-09T08:16:32.092Z,8.40
2023-01-09T08:18:58.811Z,8.50
2023-01-09T08:21:25.620Z,8.50
2023-01-09T08:23:52.431Z,8.50
2023-01-09T08:26:19.613Z,8.50
2023-01-09T08:28:47.167Z,8.50
2023-01-09T08:31:14.561Z,8.30
2023-01-09T08:33:41.486Z,8.50
2023-01-09T08:36:08.679Z,8.50
2023-01-09T08:38:35.631Z,8.50
2023-01-09T08:41:25.319Z,8.50
2023-01-09T08:44:11.219Z,8.50
2023-01-09T08:46:57.624Z,8.60
2023-01-09T08:49:25.221Z,8.60
2023-01-09T08:51:56.467Z,8.60
2023-01-09T08:54:26.281Z,8.60
2023-01-09T08:56:53.432Z,8.60
2023-01-09T08:59:20.950Z,8.50
2023-01-09T09:01:50.649Z,8.50
2023-01-09T09:04:17.989Z,8.40
2023-01-09T09:06:47.105Z,8.40
2023-01-09T09:09:16.395Z,8.40
2023-01-09T09:11:44.968Z,8.40
2023-01-09T09:14:48.471Z,8.40
2023-01-09T09:17:17.639Z,8.40
2023-01-09T09:19:44.555Z,8.60
2023-01-09T09:22:11.370Z,8.50
2023-01-09T09:24:41.612Z,8.60
2023-01-09T09:27:09.913Z,8.60
2023-01-09T09:29:41.693Z,8.60
2023-01-09T09:32:08.770Z,8.70
2023-01-09T09:34:36.300Z,8.50
2023-01-09T09:37:04.418Z,8.60
2023-01-09T09:39:32.771Z,8.60
2023-01-09T09:42:30.176Z,8.60
2023-01-09T09:45:16.348Z,8.70
2023-01-09T09:48:01.464Z,8.70
2023-01-09T09:51:14.262Z,8.70
2023-01-09T09:53:46.947Z,8.70
2023-01-09T09:56:16.485Z,8.70
2023-01-09T09:58:50.623Z,8.80
2023-01-09T10:01:24.609Z,8.80
2023-01-09T10:03:59.368Z,8.90
2023-01-09T10:06:36.572Z,9.00
2023-01-09T10:09:10.308Z,9.00
2023-01-09T10:12:05.291Z,9.10
2023-01-09T10:14:32.540Z,9.20
2023-01-09T10:17:29.718Z,9.40
2023-01-09T10:20:11.728Z,9.30
2023-01-09T10:22:49.928Z,9.30
2023-01-09T10:25:45.554Z,9.40
2023-01-09T10:28:38.568Z,9.30
2023-01-09T10:31:16.577Z,9.30
2023-01-09T10:34:12.661Z,9.20
2023-01-09T10:37:22.952Z,9.20
2023-01-09T10:40:07.886Z,9.10
2023-01-09T10:42:53.135Z,9.20
2023-01-09T10:45:28.439Z,9.10
2023-01-09T10:48:04.281Z,9.10
2023-01-09T10:50:43.929Z,9.10
2023-01-09T10:53:30.624Z,9.20
2023-01-09T10:56:15.370Z,9.30
2023-01-09T10:58:42.235Z,9.30
2023-01-09T11:01:09.935Z,9.60
2023-01-09T11:03:38.942Z,9.50
2023-01-09T11:06:21.280Z,9.60
2023-01-09T11:08:53.872Z,9.90
2023-01-09T11:11:38.871Z,10.00
2023-01-09T11:14:13.332Z,10.10
2023-01-09T11:16:54.895Z,10.00
2023-01-09T11:19:24.061Z,10.10
2023-01-09T11:21:51.545Z,10.00
2023-01-09T11:24:21.383Z,10.00
2023-01-09T11:26:50.673Z,10.00
2023-01-09T11:29:24.452Z,9.80
2023-01-09T11:31:58.487Z,9.60
2023-01-09T11:34:32.679Z,9.70
2023-01-09T11:37:08.847Z,9.70
2023-01-09T11:39:45.451Z,9.80
2023-01-09T11:42:44.877Z,9.90
2023-01-09T11:45:33.274Z,10.00
2023-01-09T11:48:01.423Z,10.10
2023-01-09T11:50:30.429Z,10.10
2023-01-09T11:53:17.109Z,10.10
2023-01-09T11:55:46.386Z,10.20
2023-01-09T11:58:18.942Z,10.30
2023-01-09T12:00:57.034Z,10.30
2023-01-09T12:03:40.453Z,10.20
2023-01-09T12:06:30.296Z,10.20
2023-01-09T12:09:04.161Z,10.00
2023-01-09T12:11:37.238Z,10.00
2023-01-09T12:14:34.589Z,9.90
2023-01-09T12:17:38.951Z,10.00
2023-01-09T12:20:51.347Z,10.10
2023-01-09T12:23:24.901Z,10.20
2023-01-09T12:26:05.899Z,10.10
2023-01-09T12:28:52.757Z,10.00
2023-01-09T12:31:41.460Z,10.00
2023-01-09T12:34:30.963Z,10.30
2023-01-09T12:37:13.361Z,10.00
2023-01-09T12:39:55.335Z,9.90
2023-01-09T12:42:40.831Z,9.90
2023-01-09T12:45:35.264Z,9.90
2023-01-09T12:48:17.786Z,9.90
2023-01-09T12:50:53.427Z,10.00
2023-01-09T12:53:28.837Z,10.10
2023-01-09T12:56:10.615Z,10.20
2023-01-09T12:59:00.121Z,10.20
2023-01-09T13:01:38.699Z,10.20
2023-01-09T13:04:21.881Z,10.20
2023-01-09T13:06:59.579Z,10.10
2023-01-09T13:09:42.739Z,10.10
2023-01-09T13:12:14.382Z,10.00
2023-01-09T13:15:06.550Z,10.00
2023-01-09T13:17:41.888Z,10.00
2023-01-09T13:20:30.776Z,10.20
2023-01-09T13:22:59.271Z,10.40
2023-01-09T13:25:49.250Z,10.40
2023-01-09T13:28:28.619Z,10.40
2023-01-09T13:31:27.424Z,10.20
2023-01-09T13:34:00.579Z,10.30
2023-01-09T13:36:33.126Z,10.10
2023-01-09T13:39:01.778Z,10.10
2023-01-09T13:41:50.029Z,10.10
2023-01-09T13:44:28.497Z,10.10
2023-01-09T13:47:02.206Z,10.00
2023-01-09T13:49:35.292Z,10.00
2023-01-09T13:52:03.924Z,10.00
2023-01-09T13:54:55.660Z,10.00
2023-01-09T13:57:43.738Z,10.00
2023-01-09T14:00:14.375Z,10.10
2023-01-09T14:02:41.375Z,10.10
2023-01-09T14:05:25.356Z,10.10
2023-01-09T14:08:02.631Z,10.20
2023-01-09T14:10:35.510Z,10.10
2023-01-09T14:13:08.789Z,10.20
2023-01-09T14:15:44.919Z,10.20
2023-01-09T14:18:15.992Z,10.50
2023-01-09T14:20:47.834Z,10.80
2023-01-09T14:23:42.295Z,11.20
2023-01-09T14:26:22.581Z,11.60
2023-01-09T14:28:50.215Z,11.90
2023-01-09T14:31:32.262Z,12.20
2023-01-09T14:34:32.091Z,12.50
2023-01-09T14:37:01.386Z,12.50
2023-01-09T14:39:32.913Z,12.30
2023-01-09T14:42:12.155Z,11.90
2023-01-09T14:44:53.486Z,11.90
2023-01-09T14:47:23.721Z,11.40
2023-01-09T14:49:58.664Z,10.70
2023-01-09T14:52:46.039Z,10.00
2023-01-09T14:55:29.971Z,9.60
2023-01-09T14:58:25.352Z,9.30
2023-01-09T15:01:00.121Z,9.00
2023-01-09T15:03:44.297Z,8.90
2023-01-09T15:06:18.982Z,8.90
2023-01-09T15:08:49.032Z,8.90
2023-01-09T15:11:16.254Z,9.00
2023-01-09T15:13:48.890Z,9.00
2023-01-09T15:16:22.883Z,8.80
2023-01-09T15:18:56.013Z,8.80
2023-01-09T15:21:30.853Z,8.60
2023-01-09T15:24:29.842Z,8.40
2023-01-09T15:27:01.721Z,8.30
2023-01-09T15:29:30.129Z,8.30
2023-01-09T15:32:25.627Z,8.30
2023-01-09T15:34:55.092Z,8.20
2023-01-09T15:37:38.799Z,8.40
2023-01-09T15:40:08.516Z,8.10
2023-01-09T15:42:58.215Z,8.00
2023-01-09T15:45:33.700Z,8.30
2023-01-09T15:48:27.923Z,8.10
2023-01-09T15:50:57.590Z,8.10
2023-01-09T15:53:28.911Z,8.20
2023-01-09T15:56:17.085Z,8.20
2023-01-09T15:58:48.664Z,8.30
2023-01-09T16:01:38.109Z,8.10
2023-01-09T16:04:15.672Z,8.10
2023-01-09T16:06:47.392Z,8.20
2023-01-09T16:09:30.920Z,8.30
2023-01-09T16:12:01.583Z,8.20
2023-01-09T16:14:34.541Z,8.20
2023-01-09T16:17:07.415Z,8.30
2023-01-09T16:19:52.238Z,8.30
2023-01-09T16:22:41.988Z,8.30
2023-01-09T16:25:29.422Z,8.30
2023-01-09T16:30:54.358Z,8.30
2023-01-09T16:33:27.679Z,8.30
2023-01-09T16:35:55.109Z,8.20
2023-01-09T16:38:25.918Z,8.20
2023-01-09T16:41:21.700Z,8.20
2023-01-09T16:43:49.324Z,8.10
2023-01-09T16:46:19.697Z,8.10
2023-01-09T16:48:49.410Z,8.20
2023-01-09T16:51:19.339Z,8.10
2023-01-09T16:53:46.121Z,8.10
2023-01-09T16:56:23.626Z,8.10
2023-01-09T16:58:50.805Z,8.10
2023-01-09T17:01:18.024Z,8.10
2023-01-09T17:03:47.668Z,8.10
2023-01-09T17:06:28.205Z,8.20
2023-01-09T17:08:55.324Z,8.10
2023-01-09T17:11:31.696Z,8.20
2023-01-09T17:13:59.685Z,8.20
2023-01-09T17:16:27.904Z,8.20
2023-01-09T17:18:55.393Z,8.30
2023-01-09T17:21:24.827Z,8.30
2023-01-09T17:24:12.242Z,8.30
2023-01-09T17:27:00.997Z,8.20
2023-01-09T17:29:28.767Z,8.10
2023-01-09T17:31:56.553Z,8.10
2023-01-09T17:34:23.330Z,8.00
2023-01-09T17:36:50.370Z,7.90
2023-01-09T17:39:17.815Z,7.90
2023-01-09T17:41:44.775Z,7.70
2023-01-09T17:44:12.720Z,7.70
2023-01-09T17:46:43.804Z,7.70
2023-01-09T17:49:16.892Z,7.60
2023-01-09T17:51:43.970Z,7.70
2023-01-09T17:54:11.467Z,7.80
2023-01-09T17:56:42.474Z,7.60
2023-01-09T17:59:13.403Z,7.60
2023-01-09T18:01:41.435Z,7.60
2023-01-09T18:04:08.387Z,7.50
2023-01-09T18:06:36.550Z,7.50
2023-01-09T18:09:05.205Z,7.50
2023-01-09T18:11:33.073Z,7.50
2023-01-09T18:13:59.936Z,7.50
2023-01-09T18:16:28.423Z,7.60
2023-01-09T18:18:59.880Z,7.50
2023-01-09T18:21:28.341Z,7.70
2023-01-09T18:23:56.573Z,7.80
2023-01-09T18:26:23.943Z,7.80
2023-01-09T18:29:00.756Z,7.80
2023-01-09T18:31:28.654Z,7.90
2023-01-09T18:33:57.007Z,8.00
2023-01-09T18:36:29.806Z,8.00
2023-01-09T18:38:58.804Z,8.10
2023-01-09T18:41:25.974Z,8.10
2023-01-09T18:43:58.180Z,8.20
2023-01-09T18:46:26.214Z,8.10
2023-01-09T18:48:55.089Z,8.10
2023-01-09T18:51:23.131Z,8.10
2023-01-09T18:53:50.780Z,8.10
2023-01-09T18:56:19.178Z,8.10
2023-01-09T18:58:46.870Z,8.10
2023-01-09T19:01:15.154Z,8.10
2023-01-09T19:03:42.072Z,8.30
2023-01-09T19:06:09.096Z,8.10
2023-01-09T19:08:37.302Z,8.00
2023-01-09T19:11:05.094Z,7.80
2023-01-09T19:13:34.736Z,7.70
2023-01-09T19:16:02.562Z,7.60
2023-01-09T19:18:32.534Z,7.60
2023-01-09T19:20:59.800Z,7.60
2023-01-09T19:23:26.628Z,7.50
2023-01-09T19:25:54.403Z,7.50
2023-01-09T19:28:22.368Z,7.50
2023-01-09T19:30:59.129Z,7.50
2023-01-09T19:33:26.042Z,7.50
2023-01-09T19:35:53.341Z,7.50
2023-01-09T19:38:24.959Z,7.40
2023-01-09T19:40:51.841Z,7.40
2023-01-09T19:43:26.185Z,7.30
2023-01-09T19:45:56.976Z,7.30
2023-01-09T19:48:24.389Z,7.30
2023-01-09T19:50:51.256Z,7.30
2023-01-09T19:53:18.476Z,7.20
2023-01-09T19:55:45.364Z,7.30
2023-01-09T19:58:12.305Z,7.30
2023-01-09T20:00:39.536Z,7.30
2023-01-09T20:03:06.380Z,7.20
2023-01-09T20:05:33.732Z,7.10
2023-01-09T20:08:00.535Z,7.10
2023-01-09T20:10:27.324Z,7.10
2023-01-09T20:12:54.771Z,7.10
2023-01-09T20:15:22.647Z,7.00
2023-01-09T20:17:49.654Z,7.00
2023-01-09T20:22:43.316Z,7.00
2023-01-09T20:25:10.391Z,7.10
2023-01-09T20:27:37.413Z,7.10
2023-01-09T20:30:04.728Z,7.10
2023-01-09T20:32:32.839Z,7.00
2023-01-09T20:35:00.670Z,7.00
2023-01-09T20:37:27.379Z,6.90
2023-01-09T20:39:54.147Z,6.90
2023-01-09T20:42:21.059Z,6.90
2023-01-09T20:44:47.799Z,6.90
2023-01-09T20:47:15.196Z,6.80
2023-01-09T20:49:41.918Z,6.80
2023-01-09T20:52:08.837Z,6.70
2023-01-09T20:54:35.833Z,6.60
2023-01-09T20:57:02.575Z,6.50
2023-01-09T20:59:29.638Z,6.90
2023-01-09T21:01:56.422Z,6.60
2023-01-09T21:04:23.331Z,6.60
2023-01-09T21:06:50.649Z,6.60
2023-01-09T21:09:17.908Z,6.70
2023-01-09T21:11:44.738Z,6.50
2023-01-09T21:14:11.531Z,6.50
2023-01-09T21:16:39.359Z,6.50
2023-01-09T21:19:06.263Z,6.50
2023-01-09T21:21:33.248Z,6.50
2023-01-09T21:24:00.817Z,6.40
2023-01-09T21:26:30.371Z,6.50
2023-01-09T21:29:01.041Z,6.50
2023-01-09T21:31:35.663Z,6.60
2023-01-09T21:34:07.881Z,6.70
2023-01-09T21:36:37.862Z,6.70
2023-01-09T21:39:08.295Z,6.70
2023-01-09T21:41:54.694Z,6.70
2023-01-09T21:44:42.916Z,6.70
2023-01-09T21:47:09.803Z,6.70
2023-01-09T21:49:43.508Z,6.60
2023-01-09T21:52:12.753Z,6.60
2023-01-09T21:54:40.752Z,6.50
2023-01-09T21:57:07.667Z,6.50
2023-01-09T21:59:36.893Z,6.50
2023-01-09T22:02:03.676Z,6.70
2023-01-09T22:04:30.750Z,6.60
2023-01-09T22:06:58.603Z,6.60
2023-01-09T22:09:26.617Z,6.60
2023-01-09T22:11:53.514Z,6.50
2023-01-09T22:14:20.823Z,6.60
2023-01-09T22:16:49.092Z,6.50
2023-01-09T22:19:19.497Z,6.50
2023-01-09T22:21:46.599Z,6.50
2023-01-09T22:24:16.905Z,6.40
2023-01-09T22:26:43.836Z,6.60
2023-01-09T22:29:10.596Z,6.50
2023-01-09T22:31:41.003Z,6.50
2023-01-09T22:34:12.813Z,6.50
2023-01-09T22:36:39.738Z,6.60
2023-01-09T22:39:07.322Z,6.90
2023-01-09T22:41:34.163Z,6.50
2023-01-09T22:44:00.899Z,6.30
2023-01-09T22:46:27.786Z,6.40
2023-01-09T22:48:54.999Z,6.50
2023-01-09T22:51:22.818Z,6.50
2023-01-09T22:53:51.823Z,6.40
2023-01-09T22:56:21.115Z,6.40
2023-01-09T22:58:52.046Z,6.40
2023-01-09T23:01:19.820Z,6.50
2023-01-09T23:03:47.018Z,6.50
2023-01-09T23:06:19.271Z,6.40
2023-01-09T23:08:47.756Z,6.40
2023-01-09T23:11:39.079Z,6.50
2023-01-09T23:14:06.223Z,6.30
2023-01-09T23:16:33.015Z,6.30
2023-01-09T23:18:59.955Z,6.20
2023-01-09T23:21:26.776Z,6.20
2023-01-09T23:23:53.635Z,6.10
2023-01-09T23:26:20.430Z,6.00
2023-01-09T23:28:47.195Z,6.10
2023-01-09T23:31:15.606Z,6.20
2023-01-09T23:33:42.905Z,6.20
2023-01-09T23:36:09.801Z,6.30
2023-01-09T23:38:36.614Z,6.40
2023-01-09T23:41:03.349Z,6.50
2023-01-09T23:43:30.358Z,6.50
2023-01-09T23:45:58.267Z,6.60
2023-01-09T23:48:25.211Z,6.70
2023-01-09T23:50:54.116Z,6.80
2023-01-09T23:53:22.229Z,6.80
2023-01-09T23:55:50.139Z,6.90
2023-01-09T23:58:16.879Z,6.90
